Time;durP1;ratioP1;P1;durP2;ratioP2;P2;SDS_P1;SDS_P2;PMS_P1;PMS_P2;Temp;Humidity;BMP_temperature;BMP_pressure;BME280_temperature;BME280_humidity;BME280_pressure;Samples;Min_cycle;Max_cycle;Signal;HPM_P1;HPM_P2
2022/09/15 00:01:40;;;;;;;4.70;2.13;;;21.00;99.90;;;;;;5055375;28;20193;-67
2022/09/15 00:04:06;;;;;;;3.53;2.60;;;21.10;99.90;;;;;;5054853;28;20416;-67
2022/09/15 00:06:33;;;;;;;4.03;2.63;;;21.00;99.90;;;;;;5054908;28;20506;-66
2022/09/15 00:08:59;;;;;;;3.80;2.07;;;21.00;99.90;;;;;;5055116;28;20458;-66
2022/09/15 00:11:27;;;;;;;5.23;2.60;;;21.00;99.90;;;;;;5055072;28;20457;-66
2022/09/15 00:13:55;;;;;;;2.70;2.17;;;21.00;99.90;;;;;;5055014;28;20171;-66
2022/09/15 00:16:23;;;;;;;3.97;2.50;;;21.00;99.90;;;;;;5054767;28;20534;-67
2022/09/15 00:18:48;;;;;;;3.57;2.23;;;21.00;99.90;;;;;;5054178;28;20405;-66
2022/09/15 00:21:18;;;;;;;2.10;1.90;;;20.90;99.90;;;;;;5054682;28;20454;-67
2022/09/15 00:23:44;;;;;;;3.77;2.47;;;21.00;99.90;;;;;;5059183;28;20206;-67
2022/09/15 00:26:12;;;;;;;2.93;2.20;;;20.80;99.90;;;;;;5072698;28;20526;-67
2022/09/15 00:28:39;;;;;;;2.80;2.17;;;20.60;99.90;;;;;;5075278;28;20757;-67
2022/09/15 00:31:11;;;;;;;6.13;2.60;;;20.80;99.90;;;;;;5075145;28;20881;-67
2022/09/15 00:33:37;;;;;;;3.50;2.57;;;20.70;99.90;;;;;;5074764;28;20889;-67
2022/09/15 00:36:05;;;;;;;4.70;2.50;;;20.70;99.90;;;;;;5074388;28;20452;-67
2022/09/15 00:38:32;;;;;;;4.37;2.03;;;20.80;99.90;;;;;;5074511;28;20186;-67
2022/09/15 00:40:59;;;;;;;4.50;1.80;;;20.80;99.90;;;;;;5074567;28;20493;-67
2022/09/15 00:43:51;;;;;;;2.07;1.87;;;20.90;99.90;;;;;;5074801;28;20938;-66
2022/09/15 00:46:39;;;;;;;2.33;1.60;;;20.90;99.90;;;;;;5036716;28;20415;-66
2022/09/15 00:49:12;;;;;;;2.43;1.50;;;20.90;99.90;;;;;;5070762;28;20485;-67
2022/09/15 00:51:51;;;;;;;1.67;1.53;;;21.00;99.90;;;;;;5054007;28;20871;-66
2022/09/15 00:54:30;;;;;;;1.50;1.20;;;21.00;99.90;;;;;;5054613;28;20388;-66
2022/09/15 00:57:00;;;;;;;3.37;1.70;;;21.00;99.90;;;;;;5054884;28;20938;-66
2022/09/15 00:59:28;;;;;;;1.60;1.50;;;20.90;99.90;;;;;;5054081;28;20951;-66
2022/09/15 01:02:02;;;;;;;4.60;1.73;;;20.90;99.90;;;;;;5054212;28;20497;-66
2022/09/15 01:04:27;;;;;;;1.50;1.40;;;20.90;99.90;;;;;;5054009;28;20386;-66
2022/09/15 01:06:58;;;;;;;2.60;1.27;;;20.90;99.90;;;;;;5053921;28;20794;-66
2022/09/15 01:09:49;;;;;;;2.27;1.50;;;21.00;99.90;;;;;;5054742;28;20566;-66
2022/09/15 01:12:15;;;;;;;4.30;1.13;;;21.00;99.90;;;;;;5054084;28;20425;-66
2022/09/15 01:14:41;;;;;;;3.33;1.77;;;20.80;99.90;;;;;;5053637;28;20394;-66
2022/09/15 01:17:21;;;;;;;3.90;2.20;;;20.90;99.90;;;;;;5053680;28;20798;-68
2022/09/15 01:20:23;;;;;;;2.90;1.40;;;20.50;99.90;;;;;;5053414;28;20166;-68
2022/09/15 01:23:04;;;;;;;2.53;2.00;;;20.60;99.90;;;;;;5053837;28;20488;-68
2022/09/15 01:25:54;;;;;;;1.70;1.60;;;20.40;99.90;;;;;;5053811;28;20384;-67
2022/09/15 01:28:32;;;;;;;2.10;1.90;;;20.30;99.90;;;;;;5053651;28;20958;-67
2022/09/15 01:31:12;;;;;;;1.90;1.20;;;20.40;99.90;;;;;;5053540;28;20421;-67
2022/09/15 01:33:41;;;;;;;2.80;1.70;;;20.50;99.90;;;;;;5053740;28;20800;-67
2022/09/15 01:36:33;;;;;;;1.80;1.67;;;20.60;99.90;;;;;;5052042;28;20540;-67
2022/09/15 01:39:23;;;;;;;3.30;1.47;;;20.60;99.90;;;;;;5053939;28;20387;-67
2022/09/15 01:41:51;;;;;;;3.40;1.83;;;20.50;99.90;;;;;;5053949;28;20390;-67
2022/09/15 01:44:27;;;;;;;2.70;1.87;;;20.50;99.90;;;;;;5053976;28;20417;-67
2022/09/15 01:47:01;;;;;;;2.23;1.70;;;20.10;99.90;;;;;;5053243;28;20938;-67
2022/09/15 01:49:33;;;;;;;2.10;1.80;;;20.10;99.90;;;;;;5052510;28;20452;-68
2022/09/15 01:51:59;;;;;;;3.03;1.87;;;20.10;99.90;;;;;;5053521;28;20390;-67
2022/09/15 01:54:31;;;;;;;1.70;1.60;;;20.00;99.90;;;;;;5053142;28;20481;-67
2022/09/15 01:56:57;;;;;;;1.87;1.60;;;19.90;99.90;;;;;;5053705;28;20421;-67
2022/09/15 01:59:23;;;;;;;2.17;1.80;;;19.80;99.90;;;;;;5053242;28;20396;-67
2022/09/15 02:01:58;;;;;;;3.10;1.90;;;20.00;99.90;;;;;;5053144;28;20250;-67
2022/09/15 02:04:46;;;;;;;1.40;1.30;;;20.10;99.90;;;;;;5053450;28;20159;-67
2022/09/15 02:07:20;;;;;;;2.47;1.30;;;20.20;99.90;;;;;;5053244;28;20416;-66
2022/09/15 02:10:13;;;;;;;2.43;1.70;;;20.20;99.90;;;;;;5054145;28;20488;-67
2022/09/15 02:12:44;;;;;;;2.00;1.80;;;20.00;99.90;;;;;;5053318;28;20785;-66
2022/09/15 02:15:32;;;;;;;2.70;1.77;;;19.90;99.90;;;;;;5053554;28;20796;-66
2022/09/15 02:18:01;;;;;;;1.97;1.67;;;20.00;99.90;;;;;;5052902;28;20483;-67
2022/09/15 02:21:02;;;;;;;2.43;1.80;;;20.10;99.90;;;;;;5034625;28;20416;-67
2022/09/15 02:23:31;;;;;;;3.00;1.57;;;20.30;99.90;;;;;;5053104;28;20385;-67
2022/09/15 02:26:03;;;;;;;2.10;1.60;;;20.00;99.90;;;;;;5053182;28;20512;-67
2022/09/15 02:28:32;;;;;;;1.80;1.40;;;20.10;99.90;;;;;;5080847;22;20982;-71
2022/09/15 02:30:59;;;;;;;2.13;1.70;;;20.10;99.90;;;;;;5073070;28;20495;-71
2022/09/15 02:33:32;;;;;;;2.63;1.70;;;19.90;99.90;;;;;;5073709;28;20389;-70
2022/09/15 02:35:58;;;;;;;1.33;1.23;;;20.10;99.90;;;;;;5071811;28;20976;-70
2022/09/15 02:38:28;;;;;;;1.80;1.70;;;20.10;99.90;;;;;;5073204;28;20423;-71
2022/09/15 02:40:54;;;;;;;2.57;1.80;;;20.00;99.90;;;;;;5073111;28;20404;-70
2022/09/15 02:43:22;;;;;;;4.87;1.73;;;20.00;99.90;;;;;;5073536;28;20513;-71
2022/09/15 02:45:48;;;;;;;2.10;1.73;;;20.10;99.90;;;;;;5073205;28;20401;-71
2022/09/15 02:48:14;;;;;;;3.57;2.00;;;20.10;99.90;;;;;;5073819;28;20432;-71
2022/09/15 02:50:40;;;;;;;2.03;1.20;;;20.20;99.90;;;;;;5056543;28;20421;-71
2022/09/15 02:53:06;;;;;;;1.70;1.50;;;20.30;99.90;;;;;;5053229;28;20198;-71
2022/09/15 02:55:32;;;;;;;1.90;1.53;;;20.20;99.90;;;;;;5053498;28;20661;-71
2022/09/15 02:57:58;;;;;;;2.00;1.47;;;20.20;99.90;;;;;;5053322;28;20409;-71
2022/09/15 03:00:25;;;;;;;2.83;1.50;;;20.10;99.90;;;;;;5053692;28;20412;-71
2022/09/15 03:02:53;;;;;;;1.60;1.30;;;20.10;99.90;;;;;;5051653;28;20401;-71
2022/09/15 03:05:27;;;;;;;3.53;1.33;;;20.10;99.90;;;;;;5053475;28;20432;-71
2022/09/15 03:07:54;;;;;;;2.40;1.50;;;20.00;99.90;;;;;;5053044;28;20970;-71
2022/09/15 03:10:20;;;;;;;3.23;1.50;;;19.80;99.90;;;;;;5053575;28;20409;-70
2022/09/15 03:12:48;;;;;;;2.67;1.53;;;19.90;99.90;;;;;;5054368;28;20416;-71
2022/09/15 03:15:15;;;;;;;2.30;1.33;;;20.00;99.90;;;;;;5054090;28;20473;-71
2022/09/15 03:17:43;;;;;;;1.50;1.30;;;19.80;99.90;;;;;;5051846;28;20432;-70
2022/09/15 03:20:11;;;;;;;1.83;1.50;;;19.80;99.90;;;;;;5052335;28;20422;-71
2022/09/15 03:22:38;;;;;;;2.60;1.60;;;19.70;99.90;;;;;;5053177;28;20412;-71
2022/09/15 03:25:05;;;;;;;2.30;1.43;;;19.80;99.90;;;;;;5052747;28;20404;-70
2022/09/15 03:27:31;;;;;;;3.10;1.37;;;19.80;99.90;;;;;;5053159;28;20411;-70
2022/09/15 03:29:56;;;;;;;2.93;1.40;;;19.90;99.90;;;;;;5053217;28;20440;-71
2022/09/15 03:32:22;;;;;;;2.27;1.60;;;19.80;99.90;;;;;;5052980;28;20478;-71
2022/09/15 03:34:48;;;;;;;1.60;1.43;;;19.90;99.90;;;;;;5051923;28;20171;-70
2022/09/15 03:37:13;;;;;;;2.33;1.33;;;19.90;99.90;;;;;;5053036;28;20171;-71
2022/09/15 03:39:39;;;;;;;1.70;1.20;;;19.90;99.90;;;;;;5052714;28;20266;-71
2022/09/15 03:42:04;;;;;;;2.60;1.40;;;19.90;99.90;;;;;;5052772;28;20173;-71
2022/09/15 03:44:30;;;;;;;2.27;1.47;;;19.80;99.90;;;;;;5052881;28;20202;-70
2022/09/15 03:46:57;;;;;;;2.70;1.50;;;19.80;99.90;;;;;;5052884;28;20194;-70
2022/09/15 03:49:23;;;;;;;1.60;1.30;;;19.80;99.90;;;;;;5051699;28;20214;-70
2022/09/15 03:51:49;;;;;;;4.67;1.50;;;19.70;99.90;;;;;;5052987;28;20922;-70
2022/09/15 03:54:15;;;;;;;2.77;1.87;;;19.80;99.90;;;;;;5056122;28;20413;-70
2022/09/15 03:56:40;;;;;;;2.60;1.67;;;19.80;99.90;;;;;;5057480;28;20444;-71
2022/09/15 03:59:08;;;;;;;2.80;1.10;;;19.80;99.90;;;;;;5057343;28;20191;-72
2022/09/15 04:01:33;;;;;;;4.03;1.37;;;19.70;99.90;;;;;;5057017;28;20248;-70
2022/09/15 04:03:59;;;;;;;2.30;1.30;;;19.60;99.90;;;;;;5056573;28;20892;-71
2022/09/15 04:06:25;;;;;;;1.90;1.40;;;19.60;99.90;;;;;;5056271;28;20181;-71
2022/09/15 04:08:52;;;;;;;3.20;1.60;;;19.50;99.90;;;;;;5056487;28;20191;-70
2022/09/15 04:11:19;;;;;;;2.70;1.60;;;19.50;99.90;;;;;;5056282;28;20413;-72
2022/09/15 04:13:45;;;;;;;3.33;1.80;;;19.40;99.90;;;;;;5055289;28;20436;-71
2022/09/15 04:16:14;;;;;;;3.13;1.67;;;19.40;99.90;;;;;;5055554;28;20447;-72
2022/09/15 04:18:40;;;;;;;1.73;1.40;;;19.40;99.90;;;;;;5055766;28;20434;-72
2022/09/15 04:21:11;;;;;;;1.77;1.37;;;19.40;99.90;;;;;;5056109;28;20423;-71
2022/09/15 04:23:37;;;;;;;1.37;1.27;;;19.50;99.90;;;;;;5056439;28;20155;-70
2022/09/15 04:26:06;;;;;;;2.20;1.67;;;19.60;99.90;;;;;;5055747;28;20401;-70
2022/09/15 04:28:34;;;;;;;1.60;1.50;;;19.40;99.90;;;;;;5055411;28;20447;-71
2022/09/15 04:31:12;;;;;;;2.07;1.50;;;19.40;99.90;;;;;;5055300;28;20462;-70
2022/09/15 04:33:39;;;;;;;3.83;1.60;;;19.50;99.90;;;;;;5055836;28;20454;-71
2022/09/15 04:36:07;;;;;;;1.80;1.60;;;19.50;99.90;;;;;;5055694;28;20466;-71
2022/09/15 04:38:34;;;;;;;2.70;1.33;;;19.30;99.90;;;;;;5055976;28;20432;-70
2022/09/15 04:41:01;;;;;;;4.10;1.60;;;19.40;99.90;;;;;;5049866;28;20421;-69
2022/09/15 04:43:27;;;;;;;2.70;1.70;;;19.50;99.90;;;;;;5054848;28;20468;-70
2022/09/15 04:45:53;;;;;;;2.63;1.43;;;19.60;99.90;;;;;;5055467;28;20775;-71
2022/09/15 04:48:20;;;;;;;2.03;1.33;;;19.50;99.90;;;;;;5055106;28;20445;-71
2022/09/15 04:50:46;;;;;;;2.00;1.33;;;19.50;99.90;;;;;;5053157;28;20440;-71
2022/09/15 04:53:12;;;;;;;2.47;1.60;;;19.50;99.90;;;;;;5054920;28;20781;-71
2022/09/15 04:55:38;;;;;;;2.90;1.80;;;19.60;99.90;;;;;;5053632;28;20260;-70
2022/09/15 04:58:04;;;;;;;2.80;1.30;;;19.40;99.90;;;;;;5043756;28;20429;-71
2022/09/15 05:00:33;;;;;;;1.83;1.20;;;19.30;99.90;;;;;;5045420;28;20795;-69
2022/09/15 05:02:59;;;;;;;4.80;1.80;;;19.40;99.90;;;;;;5045470;28;20569;-70
2022/09/15 05:05:25;;;;;;;2.70;1.73;;;19.30;99.90;;;;;;5044324;28;20927;-70
2022/09/15 05:07:51;;;;;;;1.87;1.43;;;19.30;99.90;;;;;;5046173;28;20555;-70
2022/09/15 05:10:18;;;;;;;1.77;1.27;;;19.30;99.90;;;;;;5045251;28;20836;-70
2022/09/15 05:12:43;;;;;;;2.43;1.60;;;19.20;99.90;;;;;;5045284;28;20417;-70
2022/09/15 05:15:10;;;;;;;2.17;1.50;;;19.40;99.90;;;;;;5045222;28;20467;-70
2022/09/15 05:17:35;;;;;;;3.13;1.33;;;19.30;99.90;;;;;;5046555;28;20597;-71
2022/09/15 05:20:01;;;;;;;2.33;1.30;;;19.30;99.90;;;;;;5056205;28;20460;-71
2022/09/15 05:22:27;;;;;;;3.20;1.40;;;19.60;99.90;;;;;;5065765;28;20205;-71
2022/09/15 05:24:53;;;;;;;1.20;1.03;;;19.70;99.90;;;;;;5074614;28;20403;-71
2022/09/15 05:27:19;;;;;;;2.33;1.37;;;19.70;99.90;;;;;;5057242;28;20440;-71
2022/09/15 05:29:45;;;;;;;3.63;1.20;;;19.80;99.90;;;;;;5052830;28;20306;-70
2022/09/15 05:32:10;;;;;;;3.40;1.33;;;19.90;99.90;;;;;;5054488;28;20170;-71
2022/09/15 05:34:36;;;;;;;1.90;1.67;;;19.70;99.90;;;;;;5054614;28;20193;-70
2022/09/15 05:37:02;;;;;;;4.17;1.23;;;19.70;99.90;;;;;;5054356;28;20198;-72
2022/09/15 05:39:27;;;;;;;4.60;1.70;;;19.80;99.90;;;;;;5054357;28;20590;-71
2022/09/15 05:41:53;;;;;;;1.87;1.30;;;19.70;99.90;;;;;;5053959;28;20216;-70
2022/09/15 05:44:20;;;;;;;2.67;1.20;;;19.70;99.90;;;;;;5054238;28;20162;-70
2022/09/15 05:46:46;;;;;;;1.27;1.17;;;19.50;99.90;;;;;;5054840;28;20170;-72
2022/09/15 05:49:11;;;;;;;2.63;1.30;;;19.40;99.90;;;;;;5053808;28;20433;-70
2022/09/15 05:51:37;;;;;;;2.70;1.33;;;19.50;99.90;;;;;;5052363;28;20201;-71
2022/09/15 05:54:03;;;;;;;2.40;1.50;;;19.60;99.90;;;;;;5054412;28;20178;-70
2022/09/15 05:56:28;;;;;;;1.80;1.50;;;19.50;99.90;;;;;;5052549;28;20297;-70
2022/09/15 05:58:54;;;;;;;4.00;1.30;;;19.50;99.90;;;;;;5054072;28;20226;-70
2022/09/15 06:01:22;;;;;;;1.70;1.50;;;19.60;99.90;;;;;;5054042;28;20175;-71
2022/09/15 06:03:48;;;;;;;1.30;1.00;;;19.60;99.90;;;;;;5054275;28;20177;-70
2022/09/15 06:06:14;;;;;;;1.20;1.10;;;19.70;99.90;;;;;;5053875;28;20440;-70
2022/09/15 06:08:42;;;;;;;2.33;1.13;;;19.60;99.90;;;;;;5053834;28;20425;-71
2022/09/15 06:11:16;;;;;;;1.67;1.20;;;19.70;99.90;;;;;;5053136;28;20405;-71
2022/09/15 06:13:43;;;;;;;1.97;1.00;;;19.70;99.90;;;;;;5048743;28;20789;-70
2022/09/15 06:16:14;;;;;;;1.40;1.00;;;19.90;99.90;;;;;;5043857;28;20863;-70
2022/09/15 06:18:40;;;;;;;1.33;1.00;;;19.80;99.90;;;;;;5043865;28;20433;-71
2022/09/15 06:21:17;;;;;;;0.90;0.70;;;19.80;99.90;;;;;;5044281;28;21010;-71
2022/09/15 06:23:43;;;;;;;2.17;1.20;;;19.80;99.90;;;;;;5054015;28;20393;-70
2022/09/15 06:26:14;;;;;;;1.10;0.77;;;20.00;99.90;;;;;;5053001;28;20439;-70
2022/09/15 06:28:45;;;;;;;1.50;0.90;;;20.00;99.90;;;;;;5052840;28;20531;-70
2022/09/15 06:31:12;;;;;;;2.40;1.03;;;20.20;99.90;;;;;;5053410;28;20421;-71
2022/09/15 06:33:42;;;;;;;1.87;1.03;;;20.30;99.90;;;;;;5053796;28;20465;-72
2022/09/15 06:36:10;;;;;;;2.03;1.17;;;20.20;99.90;;;;;;5054322;28;20570;-71
2022/09/15 06:38:36;;;;;;;1.00;0.80;;;20.20;99.90;;;;;;5054244;28;20424;-72
2022/09/15 06:41:02;;;;;;;3.53;1.43;;;20.30;99.90;;;;;;5054132;28;20538;-72
2022/09/15 06:43:30;;;;;;;2.50;1.03;;;20.00;99.90;;;;;;5055580;28;20508;-71
2022/09/15 06:46:04;;;;;;;2.07;1.27;;;20.00;99.90;;;;;;5055370;28;20880;-71
2022/09/15 06:48:31;;;;;;;2.10;1.30;;;19.90;99.90;;;;;;5053428;28;20436;-70
2022/09/15 06:50:58;;;;;;;1.93;1.00;;;19.90;99.90;;;;;;5051682;28;20432;-71
2022/09/15 06:53:23;;;;;;;2.90;1.13;;;19.90;99.90;;;;;;5053129;28;20417;-70
2022/09/15 06:55:49;;;;;;;1.23;1.10;;;19.80;99.90;;;;;;5052535;28;20451;-69
2022/09/15 06:58:15;;;;;;;1.60;1.10;;;19.70;99.90;;;;;;5052953;28;20182;-70
2022/09/15 07:00:42;;;;;;;3.30;1.23;;;19.50;99.90;;;;;;5053539;28;20163;-70
2022/09/15 07:03:07;;;;;;;2.07;1.00;;;19.40;99.90;;;;;;5055955;28;20451;-70
2022/09/15 07:05:33;;;;;;;4.13;1.37;;;19.20;99.90;;;;;;5059518;28;20421;-70
2022/09/15 07:07:58;;;;;;;2.87;1.10;;;19.40;99.90;;;;;;5054545;28;20664;-70
2022/09/15 07:10:24;;;;;;;3.23;1.43;;;19.40;99.90;;;;;;5053885;28;20261;-70
2022/09/15 07:12:49;;;;;;;3.20;1.57;;;19.50;99.90;;;;;;5052272;28;20182;-70
2022/09/15 07:15:15;;;;;;;3.40;1.20;;;19.60;99.90;;;;;;5053008;28;20684;-70
2022/09/15 07:17:41;;;;;;;1.93;1.33;;;19.60;99.90;;;;;;5053642;28;20586;-71
2022/09/15 07:20:07;;;;;;;6.53;1.73;;;19.60;99.90;;;;;;5053434;28;20183;-71
2022/09/15 07:22:33;;;;;;;3.53;1.90;;;19.60;99.90;;;;;;5052619;28;20175;-71
2022/09/15 07:24:59;;;;;;;4.50;1.47;;;19.70;99.90;;;;;;5053777;28;20411;-71
2022/09/15 07:27:30;;;;;;;1.97;1.20;;;19.80;99.90;;;;;;5053722;28;20177;-71
2022/09/15 07:29:56;;;;;;;3.07;1.23;;;19.90;99.90;;;;;;5057508;28;20210;-72
2022/09/15 07:32:22;;;;;;;1.87;1.37;;;20.00;99.90;;;;;;5057990;28;20409;-72
2022/09/15 07:34:47;;;;;;;1.77;1.20;;;20.00;99.90;;;;;;5056514;28;20417;-73
2022/09/15 07:37:13;;;;;;;2.07;1.50;;;20.00;99.90;;;;;;5056938;28;20537;-71
2022/09/15 07:39:38;;;;;;;1.73;1.20;;;20.00;99.90;;;;;;5055880;28;20179;-71
2022/09/15 07:42:04;;;;;;;1.70;1.60;;;19.90;99.90;;;;;;5056583;28;20167;-71
2022/09/15 07:44:30;;;;;;;1.73;1.23;;;19.90;99.90;;;;;;5057614;28;20174;-73
2022/09/15 07:46:55;;;;;;;1.50;1.30;;;20.00;99.90;;;;;;5058156;28;20213;-74
2022/09/15 07:49:21;;;;;;;1.63;1.27;;;20.00;99.90;;;;;;5057815;28;20202;-73
2022/09/15 07:51:46;;;;;;;2.00;1.30;;;20.00;99.90;;;;;;5054695;28;20179;-73
2022/09/15 07:54:12;;;;;;;1.50;1.10;;;20.00;99.90;;;;;;5056915;28;20170;-71
2022/09/15 07:56:37;;;;;;;1.20;1.10;;;19.90;99.90;;;;;;5056675;28;20193;-72
2022/09/15 07:59:03;;;;;;;1.20;1.03;;;19.90;99.90;;;;;;5056496;28;20269;-72
2022/09/15 08:01:28;;;;;;;1.33;0.93;;;19.90;99.90;;;;;;5055098;28;20163;-72
2022/09/15 08:03:54;;;;;;;4.07;1.30;;;19.80;99.90;;;;;;5055180;28;20175;-72
2022/09/15 08:06:22;;;;;;;2.53;1.03;;;19.70;99.90;;;;;;5056625;28;20170;-73
2022/09/15 08:08:49;;;;;;;2.73;1.63;;;19.70;99.90;;;;;;5056294;28;20838;-72
2022/09/15 08:11:17;;;;;;;1.77;1.23;;;19.60;99.90;;;;;;5056536;28;20482;-73
2022/09/15 08:13:43;;;;;;;1.97;0.90;;;19.50;99.90;;;;;;5056979;28;20413;-73
2022/09/15 08:16:14;;;;;;;1.67;0.90;;;19.60;99.90;;;;;;5057248;28;20816;-73
2022/09/15 08:18:41;;;;;;;1.93;1.20;;;19.50;99.90;;;;;;5056879;28;20421;-71
2022/09/15 08:21:13;;;;;;;1.50;1.13;;;19.60;99.90;;;;;;5056650;28;20410;-71
2022/09/15 08:23:39;;;;;;;2.00;1.23;;;19.50;99.90;;;;;;5054976;28;20777;-73
2022/09/15 08:26:05;;;;;;;1.97;1.10;;;19.40;99.90;;;;;;5056212;28;20413;-72
2022/09/15 08:28:31;;;;;;;1.37;1.10;;;19.50;99.90;;;;;;5079478;22;20455;-68
2022/09/15 08:31:02;;;;;;;1.00;0.90;;;19.70;99.90;;;;;;5042516;28;20422;-67
2022/09/15 08:33:29;;;;;;;1.70;1.43;;;19.80;99.90;;;;;;5036760;28;20571;-69
2022/09/15 08:36:00;;;;;;;2.43;1.90;;;19.90;99.90;;;;;;5055008;28;20448;-68
2022/09/15 08:38:25;;;;;;;4.47;1.23;;;19.90;99.90;;;;;;5054457;28;20381;-68
2022/09/15 08:41:00;;;;;;;3.07;1.83;;;19.80;99.90;;;;;;5054966;28;20903;-68
2022/09/15 08:43:31;;;;;;;3.03;1.20;;;19.90;99.90;;;;;;5054650;28;20162;-67
2022/09/15 08:46:03;;;;;;;2.80;1.30;;;19.90;99.90;;;;;;5054893;28;20420;-69
2022/09/15 08:48:47;;;;;;;2.53;1.10;;;19.90;99.90;;;;;;5036945;28;20400;-68
2022/09/15 08:51:22;;;;;;;4.30;1.40;;;20.10;99.90;;;;;;5054855;28;20472;-67
2022/09/15 08:53:54;;;;;;;1.47;1.10;;;20.00;99.90;;;;;;5053148;28;20469;-67
2022/09/15 08:56:21;;;;;;;2.03;1.03;;;20.20;99.90;;;;;;5054635;28;20474;-67
2022/09/15 08:58:47;;;;;;;2.80;1.30;;;20.30;99.90;;;;;;5054442;28;20508;-67
2022/09/15 09:01:21;;;;;;;1.27;0.90;;;20.60;99.90;;;;;;5055441;28;20480;-67
2022/09/15 09:04:07;;;;;;;3.60;1.40;;;20.70;99.90;;;;;;5054769;28;20887;-68
2022/09/15 09:06:50;;;;;;;2.00;1.23;;;20.80;99.90;;;;;;5054746;28;20386;-68
2022/09/15 09:09:38;;;;;;;1.00;0.90;;;21.00;99.90;;;;;;5053672;28;20478;-68
2022/09/15 09:12:36;;;;;;;2.03;1.40;;;20.50;99.90;;;;;;5054205;28;20458;-66
2022/09/15 09:15:04;;;;;;;2.03;1.80;;;20.90;99.90;;;;;;5071278;28;20444;-67
2022/09/15 09:18:06;;;;;;;2.27;1.20;;;21.20;99.90;;;;;;5073965;28;20479;-68
2022/09/15 09:20:42;;;;;;;1.13;0.90;;;20.90;99.90;;;;;;5073864;28;20439;-67
2022/09/15 09:23:14;;;;;;;1.97;1.10;;;21.00;99.90;;;;;;5062821;28;20412;-67
2022/09/15 09:25:42;;;;;;;2.70;1.40;;;21.20;99.90;;;;;;5054136;28;20428;-67
2022/09/15 09:28:30;;;;;;;2.10;1.80;;;21.40;99.90;;;;;;5054181;28;20405;-67
2022/09/15 09:31:06;;;;;;;3.60;1.80;;;21.30;99.90;;;;;;5054322;28;20386;-68
2022/09/15 09:33:43;;;;;;;1.47;1.00;;;21.40;99.90;;;;;;5053621;28;20396;-68
2022/09/15 09:36:11;;;;;;;1.30;1.13;;;21.30;99.90;;;;;;5053910;28;20439;-67
2022/09/15 09:38:42;;;;;;;1.20;1.00;;;21.30;99.90;;;;;;5053558;28;20424;-67
2022/09/15 09:41:25;;;;;;;2.47;1.27;;;21.30;99.90;;;;;;5053730;28;20406;-67
2022/09/15 09:43:54;;;;;;;2.43;1.10;;;21.30;99.90;;;;;;5053892;28;20389;-68
2022/09/15 09:46:20;;;;;;;1.67;1.57;;;21.20;99.90;;;;;;5053450;28;20416;-67
2022/09/15 09:48:53;;;;;;;2.40;1.50;;;21.10;99.90;;;;;;5052975;28;20511;-67
2022/09/15 09:51:30;;;;;;;1.10;0.77;;;20.70;99.90;;;;;;5053086;28;20451;-68
2022/09/15 09:54:03;;;;;;;1.40;1.00;;;20.40;99.90;;;;;;5051950;28;20789;-67
2022/09/15 09:56:28;;;;;;;1.60;1.10;;;20.20;99.90;;;;;;5053422;28;20803;-67
2022/09/15 09:58:54;;;;;;;1.10;1.00;;;20.30;99.90;;;;;;5053321;28;20508;-66
2022/09/15 10:01:21;;;;;;;1.20;0.90;;;20.10;99.90;;;;;;5053023;28;20173;-66
2022/09/15 10:03:47;;;;;;;0.97;0.77;;;19.60;99.90;;;;;;5053174;28;20670;-66
2022/09/15 10:06:17;;;;;;;4.50;0.80;;;19.60;99.90;;;;;;5052714;28;20483;-67
2022/09/15 10:08:56;;;;;;;1.00;0.80;;;19.10;99.90;;;;;;5052489;28;20673;-66
2022/09/15 10:11:38;;;;;;;1.33;0.67;;;19.10;99.90;;;;;;5052834;28;20401;-66
2022/09/15 10:14:05;;;;;;;1.97;0.90;;;18.80;99.90;;;;;;5035187;28;20906;-66
2022/09/15 10:16:31;;;;;;;1.63;0.60;;;18.30;99.90;;;;;;5052921;28;20447;-67
2022/09/15 10:18:58;;;;;;;3.60;0.93;;;18.30;99.90;;;;;;5053125;28;20789;-67
2022/09/15 10:21:24;;;;;;;1.87;0.80;;;18.20;99.90;;;;;;5052611;28;20397;-67
2022/09/15 10:23:50;;;;;;;1.47;0.73;;;18.20;99.90;;;;;;5052045;28;20413;-66
2022/09/15 10:26:33;;;;;;;1.27;0.90;;;18.20;99.90;;;;;;5052672;28;20458;-67
2022/09/15 10:29:17;;;;;;;0.90;0.70;;;18.20;99.90;;;;;;5052664;28;20202;-67
2022/09/15 10:31:44;;;;;;;1.30;0.80;;;18.20;99.90;;;;;;5052579;28;20985;-66
2022/09/15 10:34:29;;;;;;;1.10;0.60;;;18.30;99.90;;;;;;5052969;28;20407;-66
2022/09/15 10:37:28;;;;;;;1.00;0.60;;;18.20;99.90;;;;;;5034736;28;20774;-66
2022/09/15 10:39:57;;;;;;;1.53;0.87;;;18.20;99.90;;;;;;5052149;28;20500;-66
2022/09/15 10:42:47;;;;;;;3.40;0.93;;;18.10;99.90;;;;;;5052756;28;20747;-66
2022/09/15 10:45:15;;;;;;;2.60;1.30;;;18.00;99.90;;;;;;5052960;28;20408;-66
2022/09/15 10:47:56;;;;;;;1.67;1.20;;;17.60;99.90;;;;;;5052544;28;20492;-66
2022/09/15 10:50:57;;;;;;;2.00;1.40;;;17.30;99.90;;;;;;5052680;28;20468;-67
2022/09/15 10:54:07;;;;;;;4.60;1.93;;;16.90;99.90;;;;;;5051358;28;20966;-66
2022/09/15 10:56:39;;;;;;;2.47;2.27;;;16.90;99.90;;;;;;5034564;28;20460;-67
2022/09/15 10:59:17;;;;;;;3.47;2.90;;;16.60;99.90;;;;;;5052339;28;20801;-66
2022/09/15 11:01:51;;;;;;;4.27;2.77;;;16.60;99.90;;;;;;5052265;28;20761;-67
2022/09/15 11:04:35;;;;;;;2.83;2.50;;;16.70;99.90;;;;;;5058567;28;20395;-67
2022/09/15 11:07:36;;;;;;;2.33;2.13;;;16.70;99.90;;;;;;5056331;28;20407;-67
2022/09/15 11:10:07;;;;;;;3.90;2.73;;;16.70;99.90;;;;;;5056142;28;20803;-67
2022/09/15 11:12:58;;;;;;;3.13;2.83;;;16.60;99.90;;;;;;5056499;28;20785;-67
2022/09/15 11:15:53;;;;;;;2.90;2.70;;;16.60;99.90;;;;;;5056487;28;20431;-67
2022/09/15 11:18:43;;;;;;;4.43;2.80;;;16.70;99.90;;;;;;5026000;28;20465;-66
2022/09/15 11:21:21;;;;;;;3.93;2.73;;;16.60;99.90;;;;;;5056612;28;20771;-67
2022/09/15 11:23:58;;;;;;;3.27;2.83;;;16.60;99.90;;;;;;5036199;28;20980;-67
2022/09/15 11:26:32;;;;;;;4.13;2.57;;;16.60;99.90;;;;;;5056185;28;20388;-66
2022/09/15 11:29:21;;;;;;;2.93;2.67;;;16.80;99.90;;;;;;5056023;28;21015;-66
2022/09/15 11:31:53;;;;;;;3.57;3.27;;;16.90;99.90;;;;;;5056213;28;20397;-67
2022/09/15 11:34:57;;;;;;;4.83;3.37;;;17.00;99.90;;;;;;5056065;28;20396;-66
2022/09/15 11:37:36;;;;;;;4.97;2.80;;;16.80;99.90;;;;;;4974642;28;20442;-67
2022/09/15 11:40:20;;;;;;;4.43;3.10;;;16.60;99.90;;;;;;5045902;28;20447;-68
2022/09/15 11:43:02;;;;;;;4.57;3.40;;;16.60;99.90;;;;;;5055886;28;20750;-68
2022/09/15 11:45:33;;;;;;;4.53;3.83;;;16.60;99.90;;;;;;5056071;28;20373;-69
2022/09/15 11:48:08;;;;;;;4.67;4.03;;;16.50;99.90;;;;;;5055764;28;20403;-68
2022/09/15 11:50:38;;;;;;;6.93;4.40;;;16.50;99.90;;;;;;5055646;28;20426;-68
2022/09/15 11:53:12;;;;;;;4.47;3.87;;;16.60;99.90;;;;;;5054447;28;20510;-68
2022/09/15 11:56:02;;;;;;;6.93;3.77;;;16.70;99.90;;;;;;5055758;28;20816;-67
2022/09/15 11:59:26;;;;;;;3.70;3.30;;;16.70;99.90;;;;;;5037418;28;20401;-67
2022/09/15 12:02:27;;;;;;;5.43;3.60;;;16.70;99.90;;;;;;4974636;28;20407;-67
2022/09/15 12:05:25;;;;;;;4.03;3.50;;;16.60;99.90;;;;;;5055504;28;20817;-67
2022/09/15 12:08:14;;;;;;;7.20;3.40;;;16.50;99.90;;;;;;5054933;28;20419;-67
2022/09/15 12:10:43;;;;;;;5.13;3.70;;;16.40;99.90;;;;;;5055674;28;20383;-67
2022/09/15 12:13:17;;;;;;;6.33;3.60;;;16.30;99.90;;;;;;5055215;28;21032;-67
2022/09/15 12:15:44;;;;;;;4.17;3.77;;;16.40;99.90;;;;;;5055029;28;20801;-67
2022/09/15 12:18:29;;;;;;;3.70;3.20;;;16.70;99.90;;;;;;5054267;28;20417;-66
2022/09/15 12:21:18;;;;;;;5.20;3.30;;;16.70;99.90;;;;;;5055262;28;20416;-65
2022/09/15 12:23:54;;;;;;;3.93;3.10;;;16.70;99.90;;;;;;5055412;28;20838;-66
2022/09/15 12:26:23;;;;;;;5.57;3.23;;;16.80;99.90;;;;;;5055041;28;20419;-67
2022/09/15 12:28:56;;;;;;;2.90;2.70;;;16.80;99.90;;;;;;5054789;28;20934;-66
2022/09/15 12:31:24;;;;;;;3.07;2.77;;;16.90;99.90;;;;;;5054243;28;20915;-67
2022/09/15 12:34:04;;;;;;;3.30;2.67;;;17.20;99.90;;;;;;5055016;28;20466;-68
2022/09/15 12:36:37;;;;;;;4.73;2.97;;;17.40;99.90;;;;;;5054545;28;21019;-68
2022/09/15 12:39:21;;;;;;;7.43;3.50;;;17.70;99.90;;;;;;5054804;28;20779;-69
2022/09/15 12:41:49;;;;;;;3.07;2.80;;;18.00;99.90;;;;;;5055108;28;20393;-67
2022/09/15 12:44:22;;;;;;;4.10;3.70;;;18.50;99.90;;;;;;5054472;28;20405;-68
2022/09/15 12:46:56;;;;;;;3.80;3.10;;;18.50;99.90;;;;;;5054081;28;20409;-67
2022/09/15 12:49:27;;;;;;;3.43;3.13;;;18.60;99.90;;;;;;5054442;28;20931;-68
2022/09/15 12:51:54;;;;;;;5.67;3.20;;;18.40;99.90;;;;;;5054604;28;20389;-67
2022/09/15 12:54:25;;;;;;;4.07;3.67;;;18.20;99.90;;;;;;5053057;28;20432;-66
2022/09/15 12:56:53;;;;;;;4.60;3.80;;;18.10;99.90;;;;;;5054676;28;20968;-67
2022/09/15 12:59:26;;;;;;;3.90;3.20;;;18.10;99.90;;;;;;5054261;28;20425;-67
2022/09/15 13:01:53;;;;;;;5.70;4.00;;;17.90;99.90;;;;;;5055020;28;20377;-67
2022/09/15 13:04:27;;;;;;;7.07;3.60;;;18.00;99.90;;;;;;5056483;28;20400;-67
2022/09/15 13:07:14;;;;;;;5.10;3.90;;;18.10;99.90;;;;;;5054474;28;20502;-68
2022/09/15 13:09:58;;;;;;;4.00;2.90;;;18.40;99.90;;;;;;5053762;28;20428;-67
2022/09/15 13:12:31;;;;;;;6.00;3.63;;;18.50;99.90;;;;;;5054206;28;20385;-67